sensor_id;sensor_type;location;lat;lon;timestamp;P1;durP1;ratioP1;P2;durP2;ratioP2
11394;SDS011;5753;54.402;10.220;2023-04-15T00:00:32;14.88;;;7.50;;
11394;SDS011;5753;54.402;10.220;2023-04-15T00:02:59;11.63;;;7.07;;
11394;SDS011;5753;54.402;10.220;2023-04-15T00:05:26;12.82;;;7.47;;
11394;SDS011;5753;54.402;10.220;2023-04-15T00:07:55;10.50;;;6.15;;
11394;SDS011;5753;54.402;10.220;2023-04-15T00:10:23;17.05;;;7.43;;
11394;SDS011;5753;54.402;10.220;2023-04-15T00:12:50;15.68;;;7.93;;
11394;SDS011;5753;54.402;10.220;2023-04-15T00:15:16;13.10;;;7.70;;
11394;SDS011;5753;54.402;10.220;2023-04-15T00:17:42;15.32;;;8.35;;
11394;SDS011;5753;54.402;10.220;2023-04-15T00:20:09;17.13;;;9.52;;
11394;SDS011;5753;54.402;10.220;2023-04-15T00:22:35;19.08;;;9.10;;
11394;SDS011;5753;54.402;10.220;2023-04-15T00:25:01;10.93;;;7.90;;
11394;SDS011;5753;54.402;10.220;2023-04-15T00:27:28;11.98;;;7.57;;
11394;SDS011;5753;54.402;10.220;2023-04-15T00:29:54;9.88;;;8.77;;
11394;SDS011;5753;54.402;10.220;2023-04-15T00:32:21;14.57;;;9.52;;
11394;SDS011;5753;54.402;10.220;2023-04-15T00:34:47;9.02;;;5.97;;
11394;SDS011;5753;54.402;10.220;2023-04-15T00:37:14;14.05;;;9.57;;
11394;SDS011;5753;54.402;10.220;2023-04-15T00:39:41;12.60;;;9.38;;
11394;SDS011;5753;54.402;10.220;2023-04-15T00:42:07;16.20;;;7.70;;
11394;SDS011;5753;54.402;10.220;2023-04-15T00:44:34;8.52;;;6.03;;
11394;SDS011;5753;54.402;10.220;2023-04-15T00:47:00;13.32;;;7.55;;
11394;SDS011;5753;54.402;10.220;2023-04-15T00:49:28;15.32;;;8.98;;
11394;SDS011;5753;54.402;10.220;2023-04-15T00:51:56;13.35;;;8.20;;
11394;SDS011;5753;54.402;10.220;2023-04-15T00:54:22;10.95;;;7.85;;
11394;SDS011;5753;54.402;10.220;2023-04-15T00:56:48;11.82;;;7.80;;
11394;SDS011;5753;54.402;10.220;2023-04-15T00:59:15;16.33;;;8.05;;
11394;SDS011;5753;54.402;10.220;2023-04-15T01:01:42;14.65;;;7.88;;
11394;SDS011;5753;54.402;10.220;2023-04-15T01:04:09;12.55;;;8.43;;
11394;SDS011;5753;54.402;10.220;2023-04-15T01:06:36;12.95;;;8.30;;
11394;SDS011;5753;54.402;10.220;2023-04-15T01:09:02;13.18;;;9.48;;
11394;SDS011;5753;54.402;10.220;2023-04-15T01:11:28;11.48;;;9.48;;
11394;SDS011;5753;54.402;10.220;2023-04-15T01:13:57;14.05;;;8.82;;
11394;SDS011;5753;54.402;10.220;2023-04-15T01:16:23;11.95;;;8.70;;
11394;SDS011;5753;54.402;10.220;2023-04-15T01:18:52;15.52;;;7.78;;
11394;SDS011;5753;54.402;10.220;2023-04-15T01:21:19;15.60;;;9.10;;
11394;SDS011;5753;54.402;10.220;2023-04-15T01:23:46;15.85;;;8.60;;
11394;SDS011;5753;54.402;10.220;2023-04-15T01:26:13;11.75;;;6.75;;
11394;SDS011;5753;54.402;10.220;2023-04-15T01:28:40;14.63;;;9.13;;
11394;SDS011;5753;54.402;10.220;2023-04-15T01:33:37;9.50;;;7.57;;
11394;SDS011;5753;54.402;10.220;2023-04-15T01:36:04;9.77;;;6.13;;
11394;SDS011;5753;54.402;10.220;2023-04-15T01:38:32;16.00;;;10.07;;
11394;SDS011;5753;54.402;10.220;2023-04-15T01:40:59;15.88;;;6.72;;
11394;SDS011;5753;54.402;10.220;2023-04-15T01:43:25;10.05;;;6.18;;
11394;SDS011;5753;54.402;10.220;2023-04-15T01:45:52;11.65;;;8.05;;
11394;SDS011;5753;54.402;10.220;2023-04-15T01:48:19;11.30;;;9.25;;
11394;SDS011;5753;54.402;10.220;2023-04-15T01:50:45;45.35;;;9.60;;
11394;SDS011;5753;54.402;10.220;2023-04-15T01:53:11;10.10;;;6.63;;
11394;SDS011;5753;54.402;10.220;2023-04-15T01:55:37;10.13;;;7.18;;
11394;SDS011;5753;54.402;10.220;2023-04-15T01:58:03;14.68;;;7.60;;
11394;SDS011;5753;54.402;10.220;2023-04-15T02:00:30;14.77;;;8.02;;
11394;SDS011;5753;54.402;10.220;2023-04-15T02:02:56;12.73;;;7.35;;
11394;SDS011;5753;54.402;10.220;2023-04-15T02:05:23;9.88;;;6.35;;
11394;SDS011;5753;54.402;10.220;2023-04-15T02:07:50;12.50;;;6.85;;
11394;SDS011;5753;54.402;10.220;2023-04-15T02:10:16;12.30;;;6.80;;
11394;SDS011;5753;54.402;10.220;2023-04-15T02:12:42;11.93;;;8.25;;
11394;SDS011;5753;54.402;10.220;2023-04-15T02:15:09;10.20;;;7.10;;
11394;SDS011;5753;54.402;10.220;2023-04-15T02:17:36;12.15;;;6.82;;
11394;SDS011;5753;54.402;10.220;2023-04-15T02:20:02;13.25;;;8.18;;
11394;SDS011;5753;54.402;10.220;2023-04-15T02:22:33;11.70;;;8.65;;
11394;SDS011;5753;54.402;10.220;2023-04-15T02:24:59;10.75;;;7.07;;
11394;SDS011;5753;54.402;10.220;2023-04-15T02:27:25;17.13;;;9.43;;
11394;SDS011;5753;54.402;10.220;2023-04-15T02:29:53;11.48;;;7.45;;
11394;SDS011;5753;54.402;10.220;2023-04-15T02:32:19;15.52;;;9.20;;
11394;SDS011;5753;54.402;10.220;2023-04-15T02:34:47;13.15;;;7.25;;
11394;SDS011;5753;54.402;10.220;2023-04-15T02:37:13;15.88;;;9.50;;
11394;SDS011;5753;54.402;10.220;2023-04-15T02:39:40;15.23;;;8.77;;
11394;SDS011;5753;54.402;10.220;2023-04-15T02:42:06;12.48;;;10.00;;
11394;SDS011;5753;54.402;10.220;2023-04-15T02:44:32;16.50;;;9.68;;
11394;SDS011;5753;54.402;10.220;2023-04-15T02:47:00;18.98;;;10.45;;
11394;SDS011;5753;54.402;10.220;2023-04-15T02:49:27;12.68;;;9.13;;
11394;SDS011;5753;54.402;10.220;2023-04-15T02:51:56;12.77;;;9.15;;
11394;SDS011;5753;54.402;10.220;2023-04-15T02:54:24;10.55;;;8.75;;
11394;SDS011;5753;54.402;10.220;2023-04-15T02:56:52;11.25;;;9.68;;
11394;SDS011;5753;54.402;10.220;2023-04-15T02:59:22;18.58;;;10.02;;
11394;SDS011;5753;54.402;10.220;2023-04-15T03:01:48;39.38;;;11.38;;
11394;SDS011;5753;54.402;10.220;2023-04-15T03:04:14;24.27;;;12.70;;
11394;SDS011;5753;54.402;10.220;2023-04-15T03:06:40;18.45;;;10.40;;
11394;SDS011;5753;54.402;10.220;2023-04-15T03:09:06;20.60;;;11.18;;
11394;SDS011;5753;54.402;10.220;2023-04-15T03:11:34;19.33;;;13.25;;
11394;SDS011;5753;54.402;10.220;2023-04-15T03:14:07;24.00;;;15.90;;
11394;SDS011;5753;54.402;10.220;2023-04-15T03:16:33;19.83;;;12.55;;
11394;SDS011;5753;54.402;10.220;2023-04-15T03:18:59;24.23;;;15.88;;
11394;SDS011;5753;54.402;10.220;2023-04-15T03:21:26;22.00;;;14.60;;
11394;SDS011;5753;54.402;10.220;2023-04-15T03:23:52;32.03;;;13.68;;
11394;SDS011;5753;54.402;10.220;2023-04-15T03:26:27;22.65;;;14.10;;
11394;SDS011;5753;54.402;10.220;2023-04-15T03:28:55;31.05;;;17.50;;
11394;SDS011;5753;54.402;10.220;2023-04-15T03:31:21;25.23;;;12.88;;
11394;SDS011;5753;54.402;10.220;2023-04-15T03:33:48;26.05;;;15.75;;
11394;SDS011;5753;54.402;10.220;2023-04-15T03:36:14;30.00;;;17.75;;
11394;SDS011;5753;54.402;10.220;2023-04-15T03:38:41;19.92;;;13.70;;
11394;SDS011;5753;54.402;10.220;2023-04-15T03:41:07;27.85;;;16.15;;
11394;SDS011;5753;54.402;10.220;2023-04-15T03:43:34;21.13;;;14.02;;
11394;SDS011;5753;54.402;10.220;2023-04-15T03:46:00;32.92;;;18.13;;
11394;SDS011;5753;54.402;10.220;2023-04-15T03:48:27;23.83;;;13.80;;
11394;SDS011;5753;54.402;10.220;2023-04-15T03:50:53;28.67;;;16.98;;
11394;SDS011;5753;54.402;10.220;2023-04-15T03:53:20;29.77;;;14.45;;
11394;SDS011;5753;54.402;10.220;2023-04-15T03:55:47;33.58;;;18.05;;
11394;SDS011;5753;54.402;10.220;2023-04-15T03:58:13;32.53;;;18.20;;
11394;SDS011;5753;54.402;10.220;2023-04-15T04:00:39;30.33;;;16.10;;
11394;SDS011;5753;54.402;10.220;2023-04-15T04:03:06;26.98;;;17.95;;
11394;SDS011;5753;54.402;10.220;2023-04-15T04:05:32;35.70;;;17.88;;
11394;SDS011;5753;54.402;10.220;2023-04-15T04:08:01;30.15;;;17.95;;
11394;SDS011;5753;54.402;10.220;2023-04-15T04:10:27;24.25;;;15.80;;
11394;SDS011;5753;54.402;10.220;2023-04-15T04:12:53;30.30;;;18.60;;
11394;SDS011;5753;54.402;10.220;2023-04-15T04:15:19;27.98;;;18.10;;
11394;SDS011;5753;54.402;10.220;2023-04-15T04:17:45;39.90;;;20.00;;
11394;SDS011;5753;54.402;10.220;2023-04-15T04:20:12;27.55;;;18.85;;
11394;SDS011;5753;54.402;10.220;2023-04-15T04:22:38;37.65;;;21.10;;
11394;SDS011;5753;54.402;10.220;2023-04-15T04:25:05;29.17;;;18.45;;
11394;SDS011;5753;54.402;10.220;2023-04-15T04:27:32;34.65;;;20.15;;
11394;SDS011;5753;54.402;10.220;2023-04-15T04:29:59;28.02;;;17.52;;
11394;SDS011;5753;54.402;10.220;2023-04-15T04:32:26;34.42;;;19.92;;
11394;SDS011;5753;54.402;10.220;2023-04-15T04:34:52;24.40;;;18.17;;
11394;SDS011;5753;54.402;10.220;2023-04-15T04:37:18;32.30;;;20.15;;
11394;SDS011;5753;54.402;10.220;2023-04-15T04:39:44;32.65;;;19.13;;
11394;SDS011;5753;54.402;10.220;2023-04-15T04:42:10;35.92;;;18.95;;
11394;SDS011;5753;54.402;10.220;2023-04-15T04:44:36;27.35;;;19.35;;
11394;SDS011;5753;54.402;10.220;2023-04-15T04:47:03;28.52;;;18.65;;
11394;SDS011;5753;54.402;10.220;2023-04-15T04:49:30;25.20;;;17.23;;
11394;SDS011;5753;54.402;10.220;2023-04-15T04:51:56;40.03;;;19.88;;
11394;SDS011;5753;54.402;10.220;2023-04-15T04:54:23;30.75;;;19.15;;
11394;SDS011;5753;54.402;10.220;2023-04-15T04:56:50;37.10;;;19.52;;
11394;SDS011;5753;54.402;10.220;2023-04-15T04:59:16;35.38;;;19.42;;
11394;SDS011;5753;54.402;10.220;2023-04-15T05:01:42;35.90;;;22.05;;
11394;SDS011;5753;54.402;10.220;2023-04-15T05:04:09;38.70;;;25.55;;
11394;SDS011;5753;54.402;10.220;2023-04-15T05:06:35;30.27;;;21.88;;
11394;SDS011;5753;54.402;10.220;2023-04-15T05:09:01;34.20;;;20.83;;
11394;SDS011;5753;54.402;10.220;2023-04-15T05:11:28;43.28;;;27.17;;
11394;SDS011;5753;54.402;10.220;2023-04-15T05:13:54;35.03;;;23.55;;
11394;SDS011;5753;54.402;10.220;2023-04-15T05:16:20;39.67;;;28.98;;
11394;SDS011;5753;54.402;10.220;2023-04-15T05:18:46;44.45;;;26.00;;
11394;SDS011;5753;54.402;10.220;2023-04-15T05:21:13;42.42;;;28.08;;
11394;SDS011;5753;54.402;10.220;2023-04-15T05:23:39;47.50;;;27.98;;
11394;SDS011;5753;54.402;10.220;2023-04-15T05:26:05;40.83;;;27.58;;
11394;SDS011;5753;54.402;10.220;2023-04-15T05:28:31;45.60;;;28.52;;
11394;SDS011;5753;54.402;10.220;2023-04-15T05:30:58;38.95;;;22.77;;
11394;SDS011;5753;54.402;10.220;2023-04-15T05:33:24;34.10;;;24.70;;
11394;SDS011;5753;54.402;10.220;2023-04-15T05:35:51;39.88;;;24.05;;
11394;SDS011;5753;54.402;10.220;2023-04-15T05:38:17;46.17;;;27.33;;
11394;SDS011;5753;54.402;10.220;2023-04-15T05:40:44;40.22;;;28.23;;
11394;SDS011;5753;54.402;10.220;2023-04-15T05:43:10;43.55;;;27.65;;
11394;SDS011;5753;54.402;10.220;2023-04-15T05:45:36;48.63;;;28.48;;
11394;SDS011;5753;54.402;10.220;2023-04-15T05:48:02;45.35;;;29.65;;
11394;SDS011;5753;54.402;10.220;2023-04-15T05:50:28;55.20;;;31.42;;
11394;SDS011;5753;54.402;10.220;2023-04-15T05:52:55;44.83;;;29.77;;
11394;SDS011;5753;54.402;10.220;2023-04-15T05:55:21;44.25;;;28.63;;
11394;SDS011;5753;54.402;10.220;2023-04-15T05:57:47;55.17;;;35.95;;
11394;SDS011;5753;54.402;10.220;2023-04-15T06:00:13;49.58;;;30.75;;
11394;SDS011;5753;54.402;10.220;2023-04-15T06:02:40;51.25;;;32.58;;
11394;SDS011;5753;54.402;10.220;2023-04-15T06:05:07;50.00;;;31.70;;
11394;SDS011;5753;54.402;10.220;2023-04-15T06:07:35;55.10;;;32.42;;
11394;SDS011;5753;54.402;10.220;2023-04-15T06:10:02;62.60;;;33.13;;
11394;SDS011;5753;54.402;10.220;2023-04-15T06:12:28;57.85;;;36.25;;
11394;SDS011;5753;54.402;10.220;2023-04-15T06:14:55;48.80;;;32.65;;
11394;SDS011;5753;54.402;10.220;2023-04-15T06:17:21;53.83;;;33.45;;
11394;SDS011;5753;54.402;10.220;2023-04-15T06:19:47;44.85;;;32.50;;
11394;SDS011;5753;54.402;10.220;2023-04-15T06:22:15;50.38;;;34.05;;
11394;SDS011;5753;54.402;10.220;2023-04-15T06:24:41;50.95;;;31.52;;
11394;SDS011;5753;54.402;10.220;2023-04-15T06:27:08;42.08;;;28.98;;
11394;SDS011;5753;54.402;10.220;2023-04-15T06:29:34;55.17;;;30.02;;
11394;SDS011;5753;54.402;10.220;2023-04-15T06:32:00;40.00;;;26.60;;
11394;SDS011;5753;54.402;10.220;2023-04-15T06:34:26;45.55;;;28.50;;
11394;SDS011;5753;54.402;10.220;2023-04-15T06:36:52;47.88;;;30.92;;
11394;SDS011;5753;54.402;10.220;2023-04-15T06:39:18;50.22;;;29.67;;
11394;SDS011;5753;54.402;10.220;2023-04-15T06:41:45;39.03;;;25.58;;
11394;SDS011;5753;54.402;10.220;2023-04-15T06:44:11;47.20;;;30.83;;
11394;SDS011;5753;54.402;10.220;2023-04-15T06:46:37;43.40;;;32.75;;
11394;SDS011;5753;54.402;10.220;2023-04-15T06:49:03;44.30;;;26.88;;
11394;SDS011;5753;54.402;10.220;2023-04-15T06:51:30;41.35;;;25.73;;
11394;SDS011;5753;54.402;10.220;2023-04-15T06:53:56;33.58;;;25.83;;
11394;SDS011;5753;54.402;10.220;2023-04-15T06:56:22;32.22;;;23.90;;
11394;SDS011;5753;54.402;10.220;2023-04-15T06:58:49;37.00;;;28.20;;
11394;SDS011;5753;54.402;10.220;2023-04-15T07:01:15;38.60;;;29.35;;
11394;SDS011;5753;54.402;10.220;2023-04-15T07:03:41;41.15;;;25.73;;
11394;SDS011;5753;54.402;10.220;2023-04-15T07:06:07;38.90;;;29.23;;
11394;SDS011;5753;54.402;10.220;2023-04-15T07:08:34;38.00;;;25.10;;
11394;SDS011;5753;54.402;10.220;2023-04-15T07:11:00;36.55;;;26.73;;
11394;SDS011;5753;54.402;10.220;2023-04-15T07:13:26;33.35;;;22.58;;
11394;SDS011;5753;54.402;10.220;2023-04-15T07:15:55;41.15;;;27.23;;
11394;SDS011;5753;54.402;10.220;2023-04-15T07:18:21;38.63;;;25.17;;
11394;SDS011;5753;54.402;10.220;2023-04-15T07:20:47;35.95;;;26.13;;
11394;SDS011;5753;54.402;10.220;2023-04-15T07:23:13;29.52;;;21.15;;
11394;SDS011;5753;54.402;10.220;2023-04-15T07:25:40;37.83;;;26.92;;
11394;SDS011;5753;54.402;10.220;2023-04-15T07:28:06;37.20;;;24.92;;
11394;SDS011;5753;54.402;10.220;2023-04-15T07:30:32;31.63;;;22.73;;
11394;SDS011;5753;54.402;10.220;2023-04-15T07:32:58;31.00;;;23.40;;
11394;SDS011;5753;54.402;10.220;2023-04-15T07:35:26;39.35;;;22.58;;
11394;SDS011;5753;54.402;10.220;2023-04-15T07:37:53;29.25;;;21.92;;
11394;SDS011;5753;54.402;10.220;2023-04-15T07:40:19;27.52;;;19.65;;
11394;SDS011;5753;54.402;10.220;2023-04-15T07:42:46;33.15;;;24.23;;
11394;SDS011;5753;54.402;10.220;2023-04-15T07:45:13;29.23;;;22.10;;
11394;SDS011;5753;54.402;10.220;2023-04-15T07:47:40;28.27;;;19.85;;
11394;SDS011;5753;54.402;10.220;2023-04-15T07:50:08;38.45;;;23.08;;
11394;SDS011;5753;54.402;10.220;2023-04-15T07:52:35;42.22;;;22.83;;
11394;SDS011;5753;54.402;10.220;2023-04-15T07:55:05;34.67;;;23.15;;
11394;SDS011;5753;54.402;10.220;2023-04-15T07:57:35;34.40;;;24.23;;
11394;SDS011;5753;54.402;10.220;2023-04-15T08:00:02;29.67;;;21.95;;
11394;SDS011;5753;54.402;10.220;2023-04-15T08:02:29;34.05;;;22.80;;
11394;SDS011;5753;54.402;10.220;2023-04-15T08:04:56;27.15;;;20.35;;
11394;SDS011;5753;54.402;10.220;2023-04-15T08:07:23;23.83;;;20.75;;
11394;SDS011;5753;54.402;10.220;2023-04-15T08:09:50;29.15;;;20.33;;
11394;SDS011;5753;54.402;10.220;2023-04-15T08:12:16;30.25;;;20.15;;
11394;SDS011;5753;54.402;10.220;2023-04-15T08:14:42;32.38;;;22.95;;
11394;SDS011;5753;54.402;10.220;2023-04-15T08:17:09;25.77;;;19.67;;
11394;SDS011;5753;54.402;10.220;2023-04-15T08:19:35;30.73;;;20.23;;
11394;SDS011;5753;54.402;10.220;2023-04-15T08:22:01;32.72;;;23.75;;
11394;SDS011;5753;54.402;10.220;2023-04-15T08:24:27;32.25;;;19.63;;
11394;SDS011;5753;54.402;10.220;2023-04-15T08:26:54;34.10;;;22.02;;
11394;SDS011;5753;54.402;10.220;2023-04-15T08:29:21;21.67;;;18.10;;
11394;SDS011;5753;54.402;10.220;2023-04-15T08:31:47;31.60;;;19.65;;
11394;SDS011;5753;54.402;10.220;2023-04-15T08:34:14;33.33;;;21.33;;
11394;SDS011;5753;54.402;10.220;2023-04-15T08:36:41;33.50;;;22.75;;
11394;SDS011;5753;54.402;10.220;2023-04-15T08:39:07;26.83;;;20.88;;
11394;SDS011;5753;54.402;10.220;2023-04-15T08:41:38;33.20;;;22.50;;
11394;SDS011;5753;54.402;10.220;2023-04-15T08:44:10;25.42;;;19.40;;
11394;SDS011;5753;54.402;10.220;2023-04-15T08:46:38;28.13;;;20.92;;
11394;SDS011;5753;54.402;10.220;2023-04-15T08:49:07;30.20;;;22.85;;
11394;SDS011;5753;54.402;10.220;2023-04-15T08:51:39;27.48;;;22.35;;
11394;SDS011;5753;54.402;10.220;2023-04-15T08:54:06;30.23;;;22.75;;
11394;SDS011;5753;54.402;10.220;2023-04-15T08:56:33;27.73;;;18.45;;
11394;SDS011;5753;54.402;10.220;2023-04-15T08:59:01;29.25;;;22.10;;
11394;SDS011;5753;54.402;10.220;2023-04-15T09:01:27;33.47;;;22.48;;
11394;SDS011;5753;54.402;10.220;2023-04-15T09:03:53;28.05;;;21.58;;
11394;SDS011;5753;54.402;10.220;2023-04-15T09:06:22;35.97;;;20.90;;
11394;SDS011;5753;54.402;10.220;2023-04-15T09:08:48;25.30;;;19.70;;
11394;SDS011;5753;54.402;10.220;2023-04-15T09:11:15;24.65;;;19.05;;
11394;SDS011;5753;54.402;10.220;2023-04-15T09:13:42;24.50;;;21.35;;
11394;SDS011;5753;54.402;10.220;2023-04-15T09:16:09;27.48;;;19.55;;
11394;SDS011;5753;54.402;10.220;2023-04-15T09:18:35;25.52;;;18.27;;
11394;SDS011;5753;54.402;10.220;2023-04-15T09:23:37;19.30;;;17.02;;
11394;SDS011;5753;54.402;10.220;2023-04-15T09:26:04;22.92;;;17.80;;
11394;SDS011;5753;54.402;10.220;2023-04-15T09:28:31;21.48;;;16.55;;
11394;SDS011;5753;54.402;10.220;2023-04-15T09:31:00;25.50;;;16.42;;
11394;SDS011;5753;54.402;10.220;2023-04-15T09:33:28;25.95;;;21.45;;
11394;SDS011;5753;54.402;10.220;2023-04-15T09:35:55;29.98;;;18.80;;
11394;SDS011;5753;54.402;10.220;2023-04-15T09:38:25;23.05;;;17.70;;
11394;SDS011;5753;54.402;10.220;2023-04-15T09:40:52;28.55;;;17.48;;
11394;SDS011;5753;54.402;10.220;2023-04-15T09:43:19;24.95;;;18.52;;
11394;SDS011;5753;54.402;10.220;2023-04-15T09:45:49;28.00;;;20.48;;
11394;SDS011;5753;54.402;10.220;2023-04-15T09:48:22;24.65;;;17.48;;
11394;SDS011;5753;54.402;10.220;2023-04-15T09:50:53;24.33;;;17.42;;
11394;SDS011;5753;54.402;10.220;2023-04-15T09:53:23;23.63;;;17.65;;
11394;SDS011;5753;54.402;10.220;2023-04-15T09:55:51;30.10;;;19.35;;
11394;SDS011;5753;54.402;10.220;2023-04-15T09:58:28;24.10;;;21.02;;
11394;SDS011;5753;54.402;10.220;2023-04-15T10:00:56;27.73;;;19.23;;
11394;SDS011;5753;54.402;10.220;2023-04-15T10:03:24;21.73;;;16.13;;
11394;SDS011;5753;54.402;10.220;2023-04-15T10:05:52;25.08;;;18.70;;
11394;SDS011;5753;54.402;10.220;2023-04-15T10:08:21;23.35;;;18.02;;
11394;SDS011;5753;54.402;10.220;2023-04-15T10:10:51;24.00;;;18.10;;
11394;SDS011;5753;54.402;10.220;2023-04-15T10:13:26;26.55;;;17.52;;
11394;SDS011;5753;54.402;10.220;2023-04-15T10:15:58;27.55;;;18.58;;
11394;SDS011;5753;54.402;10.220;2023-04-15T10:20:58;27.10;;;20.08;;
11394;SDS011;5753;54.402;10.220;2023-04-15T10:23:25;26.95;;;19.08;;
11394;SDS011;5753;54.402;10.220;2023-04-15T10:25:53;21.33;;;18.52;;
11394;SDS011;5753;54.402;10.220;2023-04-15T10:28:20;30.17;;;21.25;;
11394;SDS011;5753;54.402;10.220;2023-04-15T10:30:47;29.65;;;20.58;;
11394;SDS011;5753;54.402;10.220;2023-04-15T10:33:14;22.92;;;18.75;;
11394;SDS011;5753;54.402;10.220;2023-04-15T10:35:44;22.95;;;18.65;;
11394;SDS011;5753;54.402;10.220;2023-04-15T10:43:44;23.27;;;18.75;;
11394;SDS011;5753;54.402;10.220;2023-04-15T10:51:41;26.60;;;20.17;;
11394;SDS011;5753;54.402;10.220;2023-04-15T11:02:03;24.15;;;17.88;;
11394;SDS011;5753;54.402;10.220;2023-04-15T11:12:50;23.30;;;18.77;;
11394;SDS011;5753;54.402;10.220;2023-04-15T11:15:38;24.25;;;21.10;;
11394;SDS011;5753;54.402;10.220;2023-04-15T11:23:11;23.73;;;17.48;;
11394;SDS011;5753;54.402;10.220;2023-04-15T11:25:44;24.98;;;17.77;;
11394;SDS011;5753;54.402;10.220;2023-04-15T11:28:11;28.30;;;21.42;;
11394;SDS011;5753;54.402;10.220;2023-04-15T11:30:38;21.52;;;18.70;;
11394;SDS011;5753;54.402;10.220;2023-04-15T11:33:07;30.02;;;18.98;;
11394;SDS011;5753;54.402;10.220;2023-04-15T11:35:36;28.90;;;20.98;;
11394;SDS011;5753;54.402;10.220;2023-04-15T11:38:12;30.20;;;20.45;;
11394;SDS011;5753;54.402;10.220;2023-04-15T11:40:40;28.52;;;22.88;;
11394;SDS011;5753;54.402;10.220;2023-04-15T11:43:08;25.67;;;20.58;;
11394;SDS011;5753;54.402;10.220;2023-04-15T11:48:19;24.08;;;20.70;;
11394;SDS011;5753;54.402;10.220;2023-04-15T11:53:23;39.70;;;19.20;;
11394;SDS011;5753;54.402;10.220;2023-04-15T11:56:03;27.15;;;22.23;;
11394;SDS011;5753;54.402;10.220;2023-04-15T11:58:30;31.40;;;23.25;;
11394;SDS011;5753;54.402;10.220;2023-04-15T12:01:01;31.40;;;22.48;;
11394;SDS011;5753;54.402;10.220;2023-04-15T12:03:44;27.88;;;20.80;;
11394;SDS011;5753;54.402;10.220;2023-04-15T12:06:18;26.88;;;20.80;;
11394;SDS011;5753;54.402;10.220;2023-04-15T12:13:52;27.33;;;21.48;;
11394;SDS011;5753;54.402;10.220;2023-04-15T12:16:21;23.42;;;20.02;;
11394;SDS011;5753;54.402;10.220;2023-04-15T12:18:52;25.95;;;22.58;;
11394;SDS011;5753;54.402;10.220;2023-04-15T12:21:23;23.60;;;19.63;;
11394;SDS011;5753;54.402;10.220;2023-04-15T12:23:52;31.83;;;18.45;;
11394;SDS011;5753;54.402;10.220;2023-04-15T12:26:42;21.70;;;19.02;;
11394;SDS011;5753;54.402;10.220;2023-04-15T12:29:24;24.63;;;19.83;;
11394;SDS011;5753;54.402;10.220;2023-04-15T12:31:56;22.65;;;19.67;;
11394;SDS011;5753;54.402;10.220;2023-04-15T12:34:30;24.00;;;21.60;;
11394;SDS011;5753;54.402;10.220;2023-04-15T12:36:58;20.67;;;16.63;;
11394;SDS011;5753;54.402;10.220;2023-04-15T12:39:28;22.08;;;19.45;;
11394;SDS011;5753;54.402;10.220;2023-04-15T12:41:56;28.48;;;20.75;;
11394;SDS011;5753;54.402;10.220;2023-04-15T12:44:25;24.00;;;17.95;;
11394;SDS011;5753;54.402;10.220;2023-04-15T12:46:52;21.63;;;18.88;;
11394;SDS011;5753;54.402;10.220;2023-04-15T12:49:20;20.30;;;16.88;;
11394;SDS011;5753;54.402;10.220;2023-04-15T12:51:47;21.42;;;17.33;;
11394;SDS011;5753;54.402;10.220;2023-04-15T12:54:15;19.38;;;15.35;;
11394;SDS011;5753;54.402;10.220;2023-04-15T12:56:42;23.33;;;17.67;;
11394;SDS011;5753;54.402;10.220;2023-04-15T12:59:12;21.13;;;16.08;;
11394;SDS011;5753;54.402;10.220;2023-04-15T13:01:39;26.33;;;16.20;;
11394;SDS011;5753;54.402;10.220;2023-04-15T13:04:06;22.40;;;17.83;;
11394;SDS011;5753;54.402;10.220;2023-04-15T13:06:32;22.08;;;19.77;;
11394;SDS011;5753;54.402;10.220;2023-04-15T13:08:59;18.27;;;15.73;;
11394;SDS011;5753;54.402;10.220;2023-04-15T13:11:25;19.65;;;17.35;;
11394;SDS011;5753;54.402;10.220;2023-04-15T13:13:54;22.70;;;18.17;;
11394;SDS011;5753;54.402;10.220;2023-04-15T13:16:22;24.23;;;18.50;;
11394;SDS011;5753;54.402;10.220;2023-04-15T13:18:48;20.70;;;16.58;;
11394;SDS011;5753;54.402;10.220;2023-04-15T13:21:15;21.45;;;18.63;;
11394;SDS011;5753;54.402;10.220;2023-04-15T13:23:41;26.63;;;16.27;;
11394;SDS011;5753;54.402;10.220;2023-04-15T13:26:08;22.98;;;16.85;;
11394;SDS011;5753;54.402;10.220;2023-04-15T13:28:34;16.73;;;14.13;;
11394;SDS011;5753;54.402;10.220;2023-04-15T13:31:01;17.13;;;13.52;;
11394;SDS011;5753;54.402;10.220;2023-04-15T13:33:27;16.73;;;15.07;;
11394;SDS011;5753;54.402;10.220;2023-04-15T13:35:54;20.15;;;18.02;;
11394;SDS011;5753;54.402;10.220;2023-04-15T13:38:20;20.58;;;14.40;;
11394;SDS011;5753;54.402;10.220;2023-04-15T13:40:47;15.98;;;13.35;;
11394;SDS011;5753;54.402;10.220;2023-04-15T13:43:13;16.85;;;14.77;;
11394;SDS011;5753;54.402;10.220;2023-04-15T13:45:39;20.80;;;14.55;;
11394;SDS011;5753;54.402;10.220;2023-04-15T13:48:05;19.13;;;14.70;;
11394;SDS011;5753;54.402;10.220;2023-04-15T13:50:32;19.88;;;15.30;;
11394;SDS011;5753;54.402;10.220;2023-04-15T13:52:58;18.00;;;15.52;;
11394;SDS011;5753;54.402;10.220;2023-04-15T13:55:24;20.60;;;15.25;;
11394;SDS011;5753;54.402;10.220;2023-04-15T13:57:50;16.83;;;13.75;;
11394;SDS011;5753;54.402;10.220;2023-04-15T14:00:17;26.35;;;15.45;;
11394;SDS011;5753;54.402;10.220;2023-04-15T14:02:43;20.08;;;15.63;;
11394;SDS011;5753;54.402;10.220;2023-04-15T14:05:10;21.42;;;15.55;;
11394;SDS011;5753;54.402;10.220;2023-04-15T14:07:36;24.10;;;17.13;;
11394;SDS011;5753;54.402;10.220;2023-04-15T14:10:03;17.83;;;15.85;;
11394;SDS011;5753;54.402;10.220;2023-04-15T14:12:29;22.58;;;15.63;;
11394;SDS011;5753;54.402;10.220;2023-04-15T14:14:55;16.88;;;15.13;;
11394;SDS011;5753;54.402;10.220;2023-04-15T14:17:22;20.33;;;16.45;;
11394;SDS011;5753;54.402;10.220;2023-04-15T14:19:48;20.42;;;15.73;;
11394;SDS011;5753;54.402;10.220;2023-04-15T14:22:14;26.70;;;18.42;;
11394;SDS011;5753;54.402;10.220;2023-04-15T14:24:42;21.77;;;19.10;;
11394;SDS011;5753;54.402;10.220;2023-04-15T14:27:09;22.45;;;17.95;;
11394;SDS011;5753;54.402;10.220;2023-04-15T14:29:36;25.73;;;17.27;;
11394;SDS011;5753;54.402;10.220;2023-04-15T14:32:02;20.77;;;16.85;;
11394;SDS011;5753;54.402;10.220;2023-04-15T14:34:29;21.15;;;16.17;;
11394;SDS011;5753;54.402;10.220;2023-04-15T14:36:55;20.45;;;14.77;;
11394;SDS011;5753;54.402;10.220;2023-04-15T14:39:21;19.88;;;15.68;;
11394;SDS011;5753;54.402;10.220;2023-04-15T14:41:47;19.23;;;14.73;;
11394;SDS011;5753;54.402;10.220;2023-04-15T14:44:14;18.02;;;14.73;;
11394;SDS011;5753;54.402;10.220;2023-04-15T14:46:40;19.15;;;16.02;;
11394;SDS011;5753;54.402;10.220;2023-04-15T14:49:06;23.25;;;15.77;;
11394;SDS011;5753;54.402;10.220;2023-04-15T14:51:33;22.55;;;15.73;;
11394;SDS011;5753;54.402;10.220;2023-04-15T14:53:59;17.10;;;14.05;;
11394;SDS011;5753;54.402;10.220;2023-04-15T14:56:25;19.67;;;16.25;;
11394;SDS011;5753;54.402;10.220;2023-04-15T14:58:51;15.60;;;13.73;;
11394;SDS011;5753;54.402;10.220;2023-04-15T15:01:18;18.73;;;15.73;;
11394;SDS011;5753;54.402;10.220;2023-04-15T15:03:45;20.70;;;16.48;;
11394;SDS011;5753;54.402;10.220;2023-04-15T15:06:11;15.98;;;14.15;;
11394;SDS011;5753;54.402;10.220;2023-04-15T15:08:38;25.13;;;16.60;;
11394;SDS011;5753;54.402;10.220;2023-04-15T15:11:04;19.10;;;13.63;;
11394;SDS011;5753;54.402;10.220;2023-04-15T15:13:30;17.58;;;14.20;;